Time;durP1;ratioP1;P1;durP2;ratioP2;P2;SDS_P1;SDS_P2;PMS_P1;PMS_P2;Temp;Humidity;BMP_temperature;BMP_pressure;BME280_temperature;BME280_humidity;BME280_pressure;Samples;Min_cycle;Max_cycle;Signal;HPM_P1;HPM_P2
2021/05/15 00:00:07;;;;;;;0.63;0.60;;;;;;;;;;5110346;28;20024;-70
2021/05/15 00:05:55;;;;;;;0.88;0.50;;;;;;;;;;5110484;28;20043;-70
2021/05/15 00:08:21;;;;;;;1.02;0.70;;;;;;;;;;5110445;28;20051;-70
2021/05/15 00:10:48;;;;;;;0.95;0.52;;;;;;;;;;5110115;28;20441;-70
2021/05/15 00:15:17;;;;;;;0.77;0.45;;;;;;;;;;5110521;27;20426;-70
2021/05/15 00:17:44;;;;;;;0.32;0.22;;;;;;;;;;5108821;28;20032;-70
2021/05/15 00:20:12;;;;;;;2.05;0.70;;;;;;;;;;5110355;28;20042;-70
2021/05/15 00:22:40;;;;;;;1.98;0.68;;;;;;;;;;5110399;28;20016;-70
2021/05/15 00:25:46;;;;;;;2.67;0.57;;;;;;;;;;5110108;27;20422;-70
2021/05/15 00:28:12;;;;;;;2.15;0.50;;;;;;;;;;5110520;28;20111;-70
2021/05/15 00:32:14;;;;;;;1.45;0.68;;;;;;;;;;5110256;27;20443;-71
2021/05/15 00:35:54;;;;;;;1.02;0.50;;;;;;;;;;5110482;27;20441;-70
2021/05/15 00:38:21;;;;;;;1.98;0.60;;;;;;;;;;5110429;28;20085;-70
2021/05/15 00:40:47;;;;;;;2.17;0.60;;;;;;;;;;5109925;28;20032;-70
2021/05/15 00:43:13;;;;;;;0.93;0.43;;;;;;;;;;5109111;28;20391;-70
2021/05/15 00:46:35;;;;;;;1.15;0.63;;;;;;;;;;5110092;27;20430;-70
2021/05/15 00:50:35;;;;;;;1.80;0.50;;;;;;;;;;5070090;28;20384;-70
2021/05/15 00:53:03;;;;;;;1.35;0.60;;;;;;;;;;5068314;28;20544;-70
2021/05/15 00:55:29;;;;;;;2.42;0.70;;;;;;;;;;5069833;28;20031;-70
2021/05/15 00:57:56;;;;;;;1.45;0.50;;;;;;;;;;5069862;28;20029;-70
2021/05/15 01:00:23;;;;;;;0.85;0.50;;;;;;;;;;5069358;28;20021;-70
2021/05/15 01:02:49;;;;;;;3.05;1.00;;;;;;;;;;5068375;28;20024;-70
2021/05/15 01:05:16;;;;;;;1.42;0.43;;;;;;;;;;5069672;28;20036;-70
2021/05/15 01:08:20;;;;;;;0.95;0.60;;;;;;;;;;5109964;27;20799;-70
2021/05/15 01:12:31;;;;;;;3.80;0.63;;;;;;;;;;5110711;27;20772;-70
2021/05/15 01:14:58;;;;;;;3.38;0.98;;;;;;;;;;5110065;28;20392;-70
2021/05/15 01:18:37;;;;;;;3.63;1.45;;;;;;;;;;5110511;27;20385;-70
2021/05/15 01:21:04;;;;;;;2.05;1.13;;;;;;;;;;5108827;28;20476;-70
2021/05/15 01:23:30;;;;;;;2.75;1.10;;;;;;;;;;5110407;28;20016;-70
2021/05/15 01:28:02;;;;;;;6.20;1.27;;;;;;;;;;5110095;27;20381;-70
2021/05/15 01:30:28;;;;;;;3.25;1.13;;;;;;;;;;5109134;28;20028;-70
2021/05/15 01:34:48;;;;;;;0.70;0.50;;;;;;;;;;5110507;27;20454;-70
2021/05/15 01:38:32;;;;;;;2.38;0.80;;;;;;;;;;5110565;27;20388;-70
2021/05/15 01:43:48;;;;;;;1.38;0.50;;;;;;;;;;5110108;27;20385;-70
2021/05/15 01:46:15;;;;;;;1.48;0.80;;;;;;;;;;5110369;28;20031;-70
2021/05/15 01:49:34;;;;;;;1.73;0.60;;;;;;;;;;5110183;27;20741;-70
2021/05/15 01:52:22;;;;;;;2.20;0.77;;;;;;;;;;5110646;27;20891;-70
2021/05/15 01:56:35;;;;;;;1.80;0.88;;;;;;;;;;5110113;27;20727;-70
2021/05/15 01:59:01;;;;;;;3.60;1.00;;;;;;;;;;5109158;28;20534;-70
2021/05/15 02:01:38;;;;;;;2.07;0.70;;;;;;;;;;5118871;27;1033730;-70
2021/05/15 02:04:17;;;;;;;2.90;1.20;;;;;;;;;;5069751;28;20433;-70
2021/05/15 02:06:43;;;;;;;2.55;0.90;;;;;;;;;;5068664;28;20025;-70
2021/05/15 02:09:09;;;;;;;3.40;0.93;;;;;;;;;;5069794;28;20079;-70
2021/05/15 02:12:45;;;;;;;4.82;1.08;;;;;;;;;;5070425;28;20395;-70
2021/05/15 02:17:02;;;;;;;1.90;0.88;;;;;;;;;;5110109;27;20389;-69
2021/05/15 02:19:52;;;;;;;5.07;1.13;;;;;;;;;;5110598;27;20434;-69
2021/05/15 02:22:31;;;;;;;1.02;0.80;;;;;;;;;;5110453;27;20787;-69
2021/05/15 02:26:26;;;;;;;2.08;0.88;;;;;;;;;;5110041;27;20388;-70
2021/05/15 02:28:52;;;;;;;4.25;1.10;;;;;;;;;;5109172;28;20069;-70
2021/05/15 02:31:18;;;;;;;3.58;0.80;;;;;;;;;;5108730;28;20028;-70
2021/05/15 02:35:03;;;;;;;3.17;1.25;;;;;;;;;;5131106;27;20163;-70
2021/05/15 02:38:38;;;;;;;1.58;0.68;;;;;;;;;;5110056;27;20464;-70
2021/05/15 02:41:04;;;;;;;4.90;0.75;;;;;;;;;;5110425;28;20027;-70
2021/05/15 02:43:30;;;;;;;4.30;0.85;;;;;;;;;;5110385;28;20016;-70
2021/05/15 02:45:56;;;;;;;2.72;0.80;;;;;;;;;;5110151;28;20027;-70
2021/05/15 02:48:22;;;;;;;1.58;0.65;;;;;;;;;;5110354;28;20115;-69
2021/05/15 02:50:51;;;;;;;3.45;0.80;;;;;;;;;;5110271;28;20095;-70
2021/05/15 02:55:22;;;;;;;4.35;1.02;;;;;;;;;;5069999;28;20437;-70
2021/05/15 02:57:48;;;;;;;2.58;1.10;;;;;;;;;;5068704;28;20477;-70
2021/05/15 03:00:16;;;;;;;2.58;1.17;;;;;;;;;;5069543;28;20020;-70
2021/05/15 03:02:43;;;;;;;2.70;1.30;;;;;;;;;;5069867;28;20092;-70
2021/05/15 03:14:43;;;;;;;12.90;5.35;;;;;;;;;;5110302;27;20888;-70
2021/05/15 03:17:10;;;;;;;13.77;6.45;;;;;;;;;;5109253;28;20031;-69
2021/05/15 03:19:48;;;;;;;5.82;2.60;;;;;;;;;;5110386;27;20425;-69
2021/05/15 03:24:12;;;;;;;4.50;1.35;;;;;;;;;;5110563;27;20428;-69
2021/05/15 03:26:38;;;;;;;23.63;15.98;;;;;;;;;;5110412;28;20077;-71
2021/05/15 03:29:46;;;;;;;36.40;26.52;;;;;;;;;;5069815;28;20441;-69
2021/05/15 03:32:13;;;;;;;31.25;23.80;;;;;;;;;;5069900;28;20056;-70
2021/05/15 03:34:39;;;;;;;16.23;11.38;;;;;;;;;;5069684;28;20418;-70
2021/05/15 03:37:06;;;;;;;9.23;5.47;;;;;;;;;;5069919;28;20020;-70
2021/05/15 03:39:32;;;;;;;6.38;2.42;;;;;;;;;;5069743;28;20021;-70
2021/05/15 03:44:43;;;;;;;2.70;1.23;;;;;;;;;;5110473;27;20168;-70
2021/05/15 03:47:09;;;;;;;3.80;1.58;;;;;;;;;;5109116;28;20028;-70
2021/05/15 03:49:35;;;;;;;2.90;1.33;;;;;;;;;;5110029;28;20020;-70
2021/05/15 03:53:40;;;;;;;3.22;1.90;;;;;;;;;;5110583;27;20865;-70
2021/05/15 03:56:06;;;;;;;4.68;2.00;;;;;;;;;;5110281;28;20028;-71
2021/05/15 03:59:17;;;;;;;2.83;1.20;;;;;;;;;;5049749;28;20422;-70
2021/05/15 04:01:45;;;;;;;2.00;1.15;;;;;;;;;;5049887;28;20475;-71
2021/05/15 04:05:55;;;;;;;5.10;0.95;;;;;;;;;;5110444;27;20385;-70
2021/05/15 04:08:21;;;;;;;3.78;1.30;;;;;;;;;;5109269;28;20443;-71
2021/05/15 04:11:05;;;;;;;4.30;1.70;;;;;;;;;;5110237;27;20119;-71
2021/05/15 04:13:55;;;;;;;5.80;1.50;;;;;;;;;;5110524;28;20448;-72
2021/05/15 04:23:34;;;;;;;4.28;1.45;;;;;;;;;;5110411;27;20430;-71
2021/05/15 04:26:00;;;;;;;1.80;1.02;;;;;;;;;;5110016;28;20028;-71
2021/05/15 04:29:59;;;;;;;1.52;0.75;;;;;;;;;;5110444;27;20381;-71
2021/05/15 04:32:25;;;;;;;2.80;1.15;;;;;;;;;;5110086;28;20032;-71
2021/05/15 04:35:02;;;;;;;3.70;1.30;;;;;;;;;;5110710;27;20381;-71
2021/05/15 04:37:28;;;;;;;2.15;1.00;;;;;;;;;;5110612;28;20031;-71
2021/05/15 04:40:09;;;;;;;6.88;1.45;;;;;;;;;;5110519;27;20885;-71
2021/05/15 04:43:34;;;;;;;4.00;1.65;;;;;;;;;;5110486;27;20787;-70
2021/05/15 04:46:00;;;;;;;2.15;0.93;;;;;;;;;;5110065;28;20480;-70
2021/05/15 04:50:11;;;;;;;4.25;1.10;;;;;;;;;;5131012;27;20165;-71
2021/05/15 04:52:37;;;;;;;3.67;1.23;;;;;;;;;;5091749;28;20488;-71
2021/05/15 04:56:24;;;;;;;2.22;0.93;;;;;;;;;;5110767;27;20377;-70
2021/05/15 04:58:50;;;;;;;3.40;0.90;;;;;;;;;;5110188;28;20031;-70
2021/05/15 05:01:16;;;;;;;2.47;0.60;;;;;;;;;;5110432;28;20027;-69
2021/05/15 05:03:42;;;;;;;2.97;1.08;;;;;;;;;;5110439;28;20526;-70
2021/05/15 05:06:08;;;;;;;2.15;0.77;;;;;;;;;;5109932;28;20083;-70
2021/05/15 05:10:38;;;;;;;0.47;0.45;;;;;;;;;;5110537;27;20384;-70
2021/05/15 05:14:23;;;;;;;1.95;0.70;;;;;;;;;;5110173;27;20722;-70
2021/05/15 05:16:54;;;;;;;0.63;0.57;;;;;;;;;;5109284;28;20507;-70
2021/05/15 05:19:20;;;;;;;1.92;0.80;;;;;;;;;;5110509;28;20062;-70
2021/05/15 05:21:46;;;;;;;2.90;0.80;;;;;;;;;;5110303;28;20428;-70
2021/05/15 05:24:13;;;;;;;3.45;1.27;;;;;;;;;;5110306;28;20051;-70
2021/05/15 05:27:22;;;;;;;1.85;1.27;;;;;;;;;;5110146;27;20422;-70
2021/05/15 05:30:44;;;;;;;1.60;0.77;;;;;;;;;;5110520;27;20385;-71
2021/05/15 05:33:10;;;;;;;1.63;0.93;;;;;;;;;;5110441;28;20112;-70
2021/05/15 05:35:38;;;;;;;2.22;0.95;;;;;;;;;;5110193;28;20026;-70
2021/05/15 05:38:51;;;;;;;3.15;1.10;;;;;;;;;;5110459;27;20389;-71
2021/05/15 05:42:58;;;;;;;1.20;0.80;;;;;;;;;;5110180;27;20884;-71
2021/05/15 05:45:24;;;;;;;1.05;0.65;;;;;;;;;;5110380;28;20480;-71
2021/05/15 05:47:50;;;;;;;3.85;0.82;;;;;;;;;;5110347;28;20020;-70
2021/05/15 05:50:16;;;;;;;2.20;0.60;;;;;;;;;;5109926;28;20094;-70
2021/05/15 05:52:43;;;;;;;2.03;0.90;;;;;;;;;;5110371;28;20125;-71
2021/05/15 05:56:29;;;;;;;4.15;0.80;;;;;;;;;;5130822;27;20150;-72
2021/05/15 05:58:56;;;;;;;3.33;1.33;;;;;;;;;;5110453;28;20020;-71
2021/05/15 06:01:22;;;;;;;3.67;1.17;;;;;;;;;;5110398;28;20028;-71
2021/05/15 06:03:48;;;;;;;2.10;1.08;;;;;;;;;;5091815;28;20383;-71
2021/05/15 06:07:01;;;;;;;1.98;0.80;;;;;;;;;;5110472;27;20385;-70
2021/05/15 06:09:27;;;;;;;2.83;0.90;;;;;;;;;;5110025;28;20038;-70
2021/05/15 06:11:53;;;;;;;3.15;0.93;;;;;;;;;;5109100;28;20388;-70
2021/05/15 06:14:19;;;;;;;3.13;1.10;;;;;;;;;;5109232;28;20024;-70
2021/05/15 06:20:57;;;;;;;4.43;1.20;;;;;;;;;;5110354;27;20945;-70
2021/05/15 06:23:24;;;;;;;2.05;0.80;;;;;;;;;;5108815;28;20016;-70
2021/05/15 06:28:35;;;;;;;1.83;0.75;;;;;;;;;;5110511;27;20389;-70
2021/05/15 06:31:02;;;;;;;1.95;0.73;;;;;;;;;;5108694;28;20116;-70
2021/05/15 06:42:43;;;;;;;2.92;1.05;;;;;;;;;;5110353;27;20389;-70
2021/05/15 06:45:10;;;;;;;2.92;1.33;;;;;;;;;;5110028;28;20024;-70
2021/05/15 06:47:36;;;;;;;4.30;1.05;;;;;;;;;;5110281;28;20073;-70
2021/05/15 06:50:04;;;;;;;1.90;0.57;;;;;;;;;;5110395;28;20022;-70
2021/05/15 06:52:30;;;;;;;1.95;1.00;;;;;;;;;;5109866;28;20016;-70
2021/05/15 06:54:56;;;;;;;1.50;0.63;;;;;;;;;;5110344;28;20047;-70
2021/05/15 06:58:32;;;;;;;2.22;1.00;;;;;;;;;;5110207;27;20385;-70
2021/05/15 07:00:58;;;;;;;2.00;0.80;;;;;;;;;;5109107;28;20024;-72
2021/05/15 07:03:24;;;;;;;2.65;0.73;;;;;;;;;;5109034;28;20450;-71
2021/05/15 07:05:50;;;;;;;1.50;0.80;;;;;;;;;;5109945;28;20024;-70
2021/05/15 07:09:16;;;;;;;2.30;1.20;;;;;;;;;;5110334;27;20430;-70
2021/05/15 07:13:21;;;;;;;5.28;1.45;;;;;;;;;;5109981;27;20463;-70
2021/05/15 07:15:48;;;;;;;2.55;0.80;;;;;;;;;;5110844;28;20028;-72
2021/05/15 07:20:05;;;;;;;2.08;0.85;;;;;;;;;;5110126;27;20381;-71
2021/05/15 07:22:32;;;;;;;1.77;0.50;;;;;;;;;;5110432;28;20034;-71
2021/05/15 07:26:39;;;;;;;1.35;0.57;;;;;;;;;;5110118;27;20381;-71
2021/05/15 07:29:06;;;;;;;4.40;1.35;;;;;;;;;;5110437;28;20031;-71
2021/05/15 07:31:33;;;;;;;2.90;1.10;;;;;;;;;;5110462;28;20051;-72
2021/05/15 07:34:01;;;;;;;2.90;1.08;;;;;;;;;;5109993;28;20020;-72
2021/05/15 07:39:36;;;;;;;5.95;0.98;;;;;;;;;;5110483;27;20465;-72
2021/05/15 07:44:00;;;;;;;2.75;0.77;;;;;;;;;;5110502;27;20438;-71
2021/05/15 07:46:26;;;;;;;3.28;1.23;;;;;;;;;;5110268;28;20031;-71
2021/05/15 07:48:52;;;;;;;4.28;1.27;;;;;;;;;;5109940;28;20027;-71
2021/05/15 07:54:08;;;;;;;1.52;0.90;;;;;;;;;;5110348;27;20949;-70
2021/05/15 07:56:34;;;;;;;5.60;1.15;;;;;;;;;;5110262;28;20388;-71
2021/05/15 08:00:16;;;;;;;6.32;1.48;;;;;;;;;;5110539;27;20381;-70
2021/05/15 08:02:42;;;;;;;2.67;1.00;;;;;;;;;;5110063;28;20081;-71
2021/05/15 08:05:12;;;;;;;3.08;1.27;;;;;;;;;;5110331;28;20016;-71
2021/05/15 08:07:39;;;;;;;4.72;1.38;;;;;;;;;;5109106;28;20028;-72
2021/05/15 08:10:07;;;;;;;3.80;1.42;;;;;;;;;;5109968;28;20480;-72
2021/05/15 08:13:56;;;;;;;2.97;1.10;;;;;;;;;;5110380;27;20406;-71
2021/05/15 08:16:22;;;;;;;3.45;1.50;;;;;;;;;;5110048;28;20023;-71
2021/05/15 08:18:48;;;;;;;4.03;1.27;;;;;;;;;;5110526;28;20024;-71
2021/05/15 08:21:32;;;;;;;3.97;0.93;;;;;;;;;;5110399;27;20381;-70
2021/05/15 08:24:28;;;;;;;3.78;1.35;;;;;;;;;;5109803;27;20380;-71
2021/05/15 08:26:55;;;;;;;3.95;1.13;;;;;;;;;;5110468;28;20032;-71
2021/05/15 08:29:22;;;;;;;6.22;1.80;;;;;;;;;;5110429;28;20031;-71
2021/05/15 08:33:13;;;;;;;8.95;4.40;;;;;;;;;;5110351;27;20389;-71
2021/05/15 08:35:40;;;;;;;7.63;2.58;;;;;;;;;;5110463;28;20564;-72
2021/05/15 08:38:06;;;;;;;3.25;1.45;;;;;;;;;;5110498;28;20027;-71
2021/05/15 08:40:33;;;;;;;3.63;1.23;;;;;;;;;;5110426;28;20054;-71
2021/05/15 08:44:57;;;;;;;3.95;1.88;;;;;;;;;;5110033;27;20438;-70
2021/05/15 08:47:23;;;;;;;2.40;1.10;;;;;;;;;;5109172;28;20433;-71
2021/05/15 08:49:50;;;;;;;3.22;1.10;;;;;;;;;;5110403;28;20020;-71
2021/05/15 08:52:16;;;;;;;3.65;1.23;;;;;;;;;;5110029;28;20024;-71
2021/05/15 08:54:43;;;;;;;6.75;1.50;;;;;;;;;;5110239;28;20028;-71
2021/05/15 08:59:01;;;;;;;2.35;0.70;;;;;;;;;;5110153;27;20442;-71
2021/05/15 09:01:27;;;;;;;5.05;0.70;;;;;;;;;;5109234;28;20077;-71
2021/05/15 09:04:43;;;;;;;2.55;0.93;;;;;;;;;;5110461;27;20390;-71
2021/05/15 09:07:10;;;;;;;2.00;0.93;;;;;;;;;;5110191;28;20028;-70
2021/05/15 09:09:37;;;;;;;1.60;0.80;;;;;;;;;;5110277;28;20051;-71
2021/05/15 09:12:04;;;;;;;3.00;1.23;;;;;;;;;;5109027;28;20666;-71
2021/05/15 09:14:30;;;;;;;3.00;0.88;;;;;;;;;;5108531;28;20026;-71
2021/05/15 09:18:35;;;;;;;3.17;0.90;;;;;;;;;;5110443;27;20449;-71
2021/05/15 09:22:43;;;;;;;3.67;1.23;;;;;;;;;;5069849;28;20384;-71
2021/05/15 09:25:09;;;;;;;2.60;1.10;;;;;;;;;;5069869;28;20037;-72
2021/05/15 09:27:36;;;;;;;1.88;0.80;;;;;;;;;;5069295;28;20032;-72
2021/05/15 09:30:27;;;;;;;3.33;1.02;;;;;;;;;;5110304;27;20375;-72
2021/05/15 09:32:53;;;;;;;2.17;0.77;;;;;;;;;;5110423;28;20480;-72
2021/05/15 09:35:21;;;;;;;4.32;1.17;;;;;;;;;;5109997;28;20023;-72
2021/05/15 09:39:54;;;;;;;3.65;0.88;;;;;;;;;;5110617;27;20878;-71
2021/05/15 09:42:20;;;;;;;3.05;0.68;;;;;;;;;;5110050;28;20055;-71
2021/05/15 09:44:46;;;;;;;4.05;1.30;;;;;;;;;;5108984;28;20023;-71
2021/05/15 09:47:13;;;;;;;3.95;0.80;;;;;;;;;;5110254;28;20020;-71
2021/05/15 09:49:39;;;;;;;6.35;1.73;;;;;;;;;;5108440;28;20020;-71
2021/05/15 09:54:11;;;;;;;1.98;0.93;;;;;;;;;;5110322;27;20430;-71
2021/05/15 09:56:37;;;;;;;2.20;0.80;;;;;;;;;;5110164;28;20046;-71
2021/05/15 09:59:03;;;;;;;3.50;1.40;;;;;;;;;;5110561;28;20028;-71
2021/05/15 10:01:39;;;;;;;5.70;1.83;;;;;;;;;;5109894;28;20094;-73
2021/05/15 10:09:40;;;;;;;3.33;1.00;;;;;;;;;;5130475;27;20428;-71
2021/05/15 10:12:06;;;;;;;3.28;1.05;;;;;;;;;;5130920;28;20078;-71
2021/05/15 10:15:18;;;;;;;2.80;1.10;;;;;;;;;;5110416;27;20164;-71
2021/05/15 10:17:44;;;;;;;3.88;1.23;;;;;;;;;;5110112;28;20024;-71
2021/05/15 10:20:10;;;;;;;3.35;0.98;;;;;;;;;;5109104;28;20028;-71
2021/05/15 10:22:40;;;;;;;2.97;1.10;;;;;;;;;;5108651;28;20107;-71
2021/05/15 10:25:11;;;;;;;2.53;0.90;;;;;;;;;;5110149;28;20024;-71
2021/05/15 10:29:49;;;;;;;5.53;1.52;;;;;;;;;;5110049;27;20442;-71
2021/05/15 10:32:16;;;;;;;2.22;1.10;;;;;;;;;;5110457;28;20111;-72
2021/05/15 10:34:45;;;;;;;2.03;0.80;;;;;;;;;;5110511;28;20043;-71
2021/05/15 10:38:36;;;;;;;2.10;0.88;;;;;;;;;;5109973;27;20385;-71
2021/05/15 10:41:10;;;;;;;3.38;1.00;;;;;;;;;;5109000;28;20486;-71
2021/05/15 10:45:09;;;;;;;4.90;1.42;;;;;;;;;;5069311;28;20391;-71
2021/05/15 10:48:40;;;;;;;3.92;1.90;;;;;;;;;;5130848;27;20162;-72
2021/05/15 10:52:07;;;;;;;2.20;0.63;;;;;;;;;;5110117;27;20381;-72
2021/05/15 10:56:00;;;;;;;2.60;1.30;;;;;;;;;;5131033;27;20160;-72
2021/05/15 10:58:38;;;;;;;2.08;0.60;;;;;;;;;;5091620;28;20032;-72
2021/05/15 11:01:11;;;;;;;1.90;1.10;;;;;;;;;;5110213;28;20480;-72
2021/05/15 11:05:21;;;;;;;3.40;1.00;;;;;;;;;;5110026;27;20376;-71
2021/05/15 11:09:25;;;;;;;5.05;1.20;;;;;;;;;;5110439;27;20791;-71
2021/05/15 11:11:52;;;;;;;3.67;1.92;;;;;;;;;;5109962;28;20395;-71
2021/05/15 11:14:49;;;;;;;5.75;2.28;;;;;;;;;;5110647;27;20381;-72
2021/05/15 11:17:22;;;;;;;3.10;1.33;;;;;;;;;;5110447;28;20028;-72
2021/05/15 11:19:57;;;;;;;5.23;1.30;;;;;;;;;;5108743;28;20115;-72
2021/05/15 11:22:35;;;;;;;1.13;0.80;;;;;;;;;;5108996;28;20039;-72
2021/05/15 11:26:02;;;;;;;3.92;1.08;;;;;;;;;;5130480;27;20479;-70
2021/05/15 11:30:32;;;;;;;2.15;0.95;;;;;;;;;;5110306;27;20385;-71
2021/05/15 11:33:12;;;;;;;1.70;0.75;;;;;;;;;;5108666;28;20031;-71
2021/05/15 11:35:39;;;;;;;4.95;1.10;;;;;;;;;;5110483;28;20437;-70
2021/05/15 11:38:10;;;;;;;0.75;0.73;;;;;;;;;;5110307;28;20035;-71
2021/05/15 11:41:30;;;;;;;4.50;1.17;;;;;;;;;;5110063;27;20385;-71
2021/05/15 11:45:36;;;;;;;3.13;0.90;;;;;;;;;;5110465;27;20631;-72
2021/05/15 11:48:05;;;;;;;4.10;1.17;;;;;;;;;;5109777;28;20023;-71
2021/05/15 11:50:31;;;;;;;1.83;0.70;;;;;;;;;;5110347;28;20357;-72
2021/05/15 11:53:03;;;;;;;3.47;1.23;;;;;;;;;;5110385;28;20051;-72
2021/05/15 11:55:30;;;;;;;3.50;1.27;;;;;;;;;;5110088;28;20043;-72
2021/05/15 11:57:57;;;;;;;3.78;1.17;;;;;;;;;;5110406;28;20102;-72
2021/05/15 12:00:26;;;;;;;1.83;0.73;;;;;;;;;;5110252;28;20024;-72
2021/05/15 12:02:52;;;;;;;2.60;0.95;;;;;;;;;;5109822;28;20384;-72
2021/05/15 12:05:20;;;;;;;3.65;1.00;;;;;;;;;;5109988;28;20036;-72
2021/05/15 12:07:49;;;;;;;2.90;1.08;;;;;;;;;;5108790;28;20020;-72
2021/05/15 12:10:17;;;;;;;3.50;1.10;;;;;;;;;;5109639;28;20058;-72
2021/05/15 12:12:57;;;;;;;2.78;1.10;;;;;;;;;;5108610;28;20077;-72
2021/05/15 12:16:08;;;;;;;3.50;0.90;;;;;;;;;;5110123;27;20426;-73
2021/05/15 12:18:34;;;;;;;2.30;0.55;;;;;;;;;;5110316;28;20097;-72
2021/05/15 12:21:04;;;;;;;3.53;1.05;;;;;;;;;;5110334;28;20035;-70
2021/05/15 12:23:30;;;;;;;2.20;0.75;;;;;;;;;;5108751;28;20403;-72
2021/05/15 12:26:01;;;;;;;1.42;0.50;;;;;;;;;;5109054;28;20085;-72
2021/05/15 12:28:28;;;;;;;3.00;0.93;;;;;;;;;;5110200;28;20020;-73
2021/05/15 12:30:55;;;;;;;3.50;0.75;;;;;;;;;;5109856;28;20024;-72
2021/05/15 12:33:22;;;;;;;2.17;0.80;;;;;;;;;;5110215;28;20046;-72
2021/05/15 12:36:05;;;;;;;1.33;0.68;;;;;;;;;;5109971;28;20036;-72
2021/05/15 12:38:33;;;;;;;2.78;0.82;;;;;;;;;;5110423;28;20034;-72
2021/05/15 12:41:24;;;;;;;1.85;0.77;;;;;;;;;;5069812;28;20438;-71
2021/05/15 12:44:52;;;;;;;7.57;0.98;;;;;;;;;;5110016;27;20469;-72
2021/05/15 12:47:19;;;;;;;1.58;0.82;;;;;;;;;;5110343;28;20472;-71
2021/05/15 12:49:45;;;;;;;3.67;0.68;;;;;;;;;;5108839;28;20085;-71
2021/05/15 12:52:23;;;;;;;2.05;0.82;;;;;;;;;;5110126;28;20178;-71
2021/05/15 12:55:18;;;;;;;1.58;0.57;;;;;;;;;;5090439;27;20386;-72
2021/05/15 12:57:57;;;;;;;1.45;0.60;;;;;;;;;;5088318;28;20453;-71
2021/05/15 13:00:33;;;;;;;3.78;1.20;;;;;;;;;;5110258;27;20438;-71
2021/05/15 13:04:25;;;;;;;3.17;0.60;;;;;;;;;;5110177;27;20693;-71
2021/05/15 13:06:51;;;;;;;2.80;0.73;;;;;;;;;;5110396;28;20028;-72
2021/05/15 13:10:35;;;;;;;1.58;0.80;;;;;;;;;;5110467;27;20446;-71
2021/05/15 13:13:02;;;;;;;1.02;0.60;;;;;;;;;;5110112;28;20031;-71
2021/05/15 13:15:32;;;;;;;5.35;0.75;;;;;;;;;;5108994;28;20076;-71
2021/05/15 13:18:02;;;;;;;1.25;0.60;;;;;;;;;;5110363;28;20040;-71
2021/05/15 13:21:14;;;;;;;0.95;0.63;;;;;;;;;;5110473;27;20442;-70
2021/05/15 13:23:41;;;;;;;1.67;1.00;;;;;;;;;;5110350;28;20107;-71
2021/05/15 13:26:07;;;;;;;8.25;0.90;;;;;;;;;;5109927;28;20016;-71
2021/05/15 13:28:38;;;;;;;5.53;1.95;;;;;;;;;;5110367;28;20030;-71
2021/05/15 13:31:05;;;;;;;6.10;1.17;;;;;;;;;;5110370;28;20053;-71
2021/05/15 13:33:32;;;;;;;1.70;0.60;;;;;;;;;;5109959;28;20043;-71
2021/05/15 13:35:58;;;;;;;2.80;0.73;;;;;;;;;;5110277;28;20492;-71
2021/05/15 13:38:24;;;;;;;3.70;1.13;;;;;;;;;;5108809;28;20028;-72
2021/05/15 13:42:35;;;;;;;3.25;1.40;;;;;;;;;;5110472;27;20438;-71
2021/05/15 13:45:01;;;;;;;1.92;0.50;;;;;;;;;;5110461;28;20024;-71
2021/05/15 13:47:27;;;;;;;1.38;0.60;;;;;;;;;;5109976;28;20404;-71
2021/05/15 13:49:53;;;;;;;1.65;0.82;;;;;;;;;;5110411;28;20012;-71
2021/05/15 13:52:43;;;;;;;4.88;0.77;;;;;;;;;;5110692;27;20384;-71
2021/05/15 13:55:09;;;;;;;4.50;0.93;;;;;;;;;;5109942;28;20035;-72
2021/05/15 13:57:36;;;;;;;1.98;0.98;;;;;;;;;;5110254;28;20031;-72
2021/05/15 14:00:02;;;;;;;1.42;0.88;;;;;;;;;;5110317;28;20016;-72
2021/05/15 14:02:28;;;;;;;1.52;0.95;;;;;;;;;;5108384;28;20016;-73
2021/05/15 14:04:54;;;;;;;2.05;0.60;;;;;;;;;;5108857;28;20445;-71
2021/05/15 14:07:20;;;;;;;2.60;0.63;;;;;;;;;;5110238;28;20024;-71
2021/05/15 14:09:46;;;;;;;3.75;1.17;;;;;;;;;;5109838;28;20492;-72
2021/05/15 14:12:13;;;;;;;5.03;1.13;;;;;;;;;;5108851;28;20119;-72
2021/05/15 14:14:39;;;;;;;4.45;0.95;;;;;;;;;;5109816;28;20038;-73
2021/05/15 14:18:05;;;;;;;4.85;1.35;;;;;;;;;;5110607;27;20415;-71
2021/05/15 14:20:31;;;;;;;2.60;0.80;;;;;;;;;;5110311;28;20043;-72
2021/05/15 14:22:58;;;;;;;3.20;1.10;;;;;;;;;;5108582;28;20020;-71
2021/05/15 14:25:24;;;;;;;6.75;1.35;;;;;;;;;;5110292;28;20107;-71
2021/05/15 14:27:50;;;;;;;2.33;0.88;;;;;;;;;;5110159;28;20035;-72
2021/05/15 14:34:06;;;;;;;2.45;1.20;;;;;;;;;;5069900;28;20445;-72
2021/05/15 14:36:32;;;;;;;7.90;2.08;;;;;;;;;;5069355;28;20025;-71
2021/05/15 14:38:58;;;;;;;2.72;1.27;;;;;;;;;;5069777;28;20405;-71
2021/05/15 14:41:24;;;;;;;6.32;2.10;;;;;;;;;;5068327;28;20477;-73
2021/05/15 14:43:50;;;;;;;5.03;1.48;;;;;;;;;;5067958;28;20024;-71
2021/05/15 14:46:17;;;;;;;5.80;1.88;;;;;;;;;;5069491;28;20404;-70
2021/05/15 14:48:43;;;;;;;8.05;3.25;;;;;;;;;;5069579;28;20095;-71
2021/05/15 14:51:10;;;;;;;6.95;2.72;;;;;;;;;;5068041;28;20162;-70
2021/05/15 14:53:37;;;;;;;7.82;2.33;;;;;;;;;;5069676;28;20112;-71
2021/05/15 14:56:06;;;;;;;3.13;1.55;;;;;;;;;;5069253;28;20016;-71
2021/05/15 14:58:36;;;;;;;6.28;1.90;;;;;;;;;;5068954;28;20028;-71
2021/05/15 15:01:03;;;;;;;3.92;1.48;;;;;;;;;;5069401;28;20039;-71
2021/05/15 15:04:46;;;;;;;2.40;1.00;;;;;;;;;;5110084;27;20373;-72
2021/05/15 15:07:49;;;;;;;2.10;0.90;;;;;;;;;;5110328;27;20388;-72
2021/05/15 15:11:01;;;;;;;3.30;1.15;;;;;;;;;;5110406;27;20384;-71
2021/05/15 15:13:27;;;;;;;1.92;1.10;;;;;;;;;;5109299;28;20027;-71
2021/05/15 15:16:55;;;;;;;2.65;1.38;;;;;;;;;;5110432;27;20438;-72
2021/05/15 15:23:00;;;;;;;6.15;1.10;;;;;;;;;;5069815;28;20920;-70
2021/05/15 15:26:00;;;;;;;2.95;1.10;;;;;;;;;;5151242;27;20164;-71
2021/05/15 15:28:26;;;;;;;3.55;1.35;;;;;;;;;;5151481;27;20030;-72
2021/05/15 15:30:52;;;;;;;3.22;1.33;;;;;;;;;;5151667;27;20344;-72
2021/05/15 15:33:19;;;;;;;4.05;1.15;;;;;;;;;;5151331;27;20054;-71
2021/05/15 15:36:19;;;;;;;1.55;1.10;;;;;;;;;;5069904;28;20433;-72
2021/05/15 15:38:46;;;;;;;3.83;1.40;;;;;;;;;;5069911;28;20461;-72
2021/05/15 15:41:12;;;;;;;3.35;1.45;;;;;;;;;;5069446;28;20021;-71
2021/05/15 15:43:38;;;;;;;4.05;1.55;;;;;;;;;;5069678;28;20025;-71
2021/05/15 15:46:54;;;;;;;4.07;0.82;;;;;;;;;;5110165;27;20381;-72
2021/05/15 15:51:00;;;;;;;2.10;0.70;;;;;;;;;;5070281;28;20441;-72
2021/05/15 15:53:27;;;;;;;3.92;0.60;;;;;;;;;;5069704;28;20024;-72
2021/05/15 15:55:59;;;;;;;3.38;1.40;;;;;;;;;;5051852;28;20028;-72
2021/05/15 15:59:33;;;;;;;1.42;0.75;;;;;;;;;;5130910;27;20597;-71
2021/05/15 16:02:00;;;;;;;7.53;3.38;;;;;;;;;;5109919;28;20339;-72
2021/05/15 16:05:06;;;;;;;10.98;3.60;;;;;;;;;;5110364;27;20381;-73
2021/05/15 16:10:16;;;;;;;20.60;7.43;;;;;;;;;;5110470;27;20881;-72
2021/05/15 16:12:42;;;;;;;8.25;3.05;;;;;;;;;;5109125;28;20479;-72
2021/05/15 16:15:09;;;;;;;6.47;2.08;;;;;;;;;;5109972;28;20024;-72
2021/05/15 16:18:36;;;;;;;4.00;1.38;;;;;;;;;;5110384;27;20373;-71
2021/05/15 16:25:14;;;;;;;7.28;1.60;;;;;;;;;;5110365;27;20946;-71
2021/05/15 16:31:22;;;;;;;4.22;1.30;;;;;;;;;;5069991;28;20899;-72
2021/05/15 16:33:48;;;;;;;5.18;1.50;;;;;;;;;;5069846;28;20044;-72
2021/05/15 16:36:15;;;;;;;3.33;1.50;;;;;;;;;;5069392;28;20024;-72
2021/05/15 16:38:41;;;;;;;7.75;1.58;;;;;;;;;;5069714;28;20017;-72
2021/05/15 16:41:07;;;;;;;3.55;1.05;;;;;;;;;;5069692;28;20104;-72
2021/05/15 16:43:34;;;;;;;7.45;2.25;;;;;;;;;;5069257;28;20021;-72
2021/05/15 16:46:00;;;;;;;3.22;1.05;;;;;;;;;;5068436;28;20031;-72
2021/05/15 16:48:39;;;;;;;0.75;0.70;;;;;;;;;;5069882;28;20480;-72
2021/05/15 16:51:10;;;;;;;4.50;1.00;;;;;;;;;;5069293;28;20028;-72
2021/05/15 16:53:37;;;;;;;3.13;0.95;;;;;;;;;;5069540;28;20032;-72
2021/05/15 16:56:04;;;;;;;5.38;0.98;;;;;;;;;;5069321;28;20527;-72
2021/05/15 16:58:32;;;;;;;3.03;1.30;;;;;;;;;;5067717;28;20432;-72
2021/05/15 17:02:23;;;;;;;2.92;1.02;;;;;;;;;;5110386;27;20385;-71
2021/05/15 17:04:49;;;;;;;6.05;1.30;;;;;;;;;;5108837;28;20054;-71
2021/05/15 17:07:16;;;;;;;3.15;1.40;;;;;;;;;;5109109;28;20024;-71
2021/05/15 17:09:42;;;;;;;3.72;1.17;;;;;;;;;;5109365;28;20030;-71
2021/05/15 17:12:09;;;;;;;5.53;1.13;;;;;;;;;;5110210;28;20095;-72
2021/05/15 17:17:56;;;;;;;4.90;1.08;;;;;;;;;;5109992;27;20139;-71
2021/05/15 17:20:23;;;;;;;3.58;0.90;;;;;;;;;;5110469;28;20027;-71
2021/05/15 17:22:49;;;;;;;3.58;1.20;;;;;;;;;;5109149;28;20020;-71
2021/05/15 17:25:15;;;;;;;9.30;2.42;;;;;;;;;;5108719;28;20110;-71
2021/05/15 17:28:20;;;;;;;2.33;1.00;;;;;;;;;;5110429;27;20385;-73
2021/05/15 17:30:46;;;;;;;1.70;0.80;;;;;;;;;;5110734;28;20035;-72
2021/05/15 17:33:13;;;;;;;2.03;0.80;;;;;;;;;;5110031;28;20016;-71
2021/05/15 17:36:04;;;;;;;2.38;0.93;;;;;;;;;;5085521;28;20395;-73
2021/05/15 17:39:03;;;;;;;0.80;0.80;;;;;;;;;;5110100;27;20430;-71
2021/05/15 17:42:39;;;;;;;1.73;0.90;;;;;;;;;;5110378;27;20385;-71
2021/05/15 17:45:05;;;;;;;2.78;1.13;;;;;;;;;;5110352;28;20498;-72
2021/05/15 17:49:17;;;;;;;5.85;1.38;;;;;;;;;;5110612;27;20381;-71
2021/05/15 17:55:02;;;;;;;2.42;0.85;;;;;;;;;;5110313;27;20377;-71
2021/05/15 17:57:28;;;;;;;3.58;1.10;;;;;;;;;;5110504;28;20077;-70
2021/05/15 17:59:55;;;;;;;1.60;0.70;;;;;;;;;;5108784;28;20059;-70
2021/05/15 18:02:22;;;;;;;1.38;1.00;;;;;;;;;;5110427;28;20499;-72